sensor_id;sensor_type;location;lat;lon;timestamp;temperature;humidity
75170;SHT31;63749;49.186;9.222;2023-12-22T00:01:29;5.13;95.25
75170;SHT31;63749;49.186;9.222;2023-12-22T00:03:54;5.05;96.04
75170;SHT31;63749;49.186;9.222;2023-12-22T00:06:20;5.06;94.89
75170;SHT31;63749;49.186;9.222;2023-12-22T00:08:45;5.05;94.73
75170;SHT31;63749;49.186;9.222;2023-12-22T00:11:11;5.00;95.04
75170;SHT31;63749;49.186;9.222;2023-12-22T00:13:36;4.93;95.83
75170;SHT31;63749;49.186;9.222;2023-12-22T00:16:01;4.96;96.05
75170;SHT31;63749;49.186;9.222;2023-12-22T00:18:27;4.93;96.30
75170;SHT31;63749;49.186;9.222;2023-12-22T00:20:52;4.98;96.08
75170;SHT31;63749;49.186;9.222;2023-12-22T00:23:18;4.99;96.51
75170;SHT31;63749;49.186;9.222;2023-12-22T00:25:43;4.93;97.13
75170;SHT31;63749;49.186;9.222;2023-12-22T00:28:09;4.79;97.30
75170;SHT31;63749;49.186;9.222;2023-12-22T00:30:34;4.76;97.31
75170;SHT31;63749;49.186;9.222;2023-12-22T00:32:59;4.71;97.52
75170;SHT31;63749;49.186;9.222;2023-12-22T00:35:26;4.65;97.80
75170;SHT31;63749;49.186;9.222;2023-12-22T00:37:52;4.61;98.10
75170;SHT31;63749;49.186;9.222;2023-12-22T00:40:18;4.65;98.19
75170;SHT31;63749;49.186;9.222;2023-12-22T00:42:43;4.71;97.97
75170;SHT31;63749;49.186;9.222;2023-12-22T00:45:09;4.68;97.86
75170;SHT31;63749;49.186;9.222;2023-12-22T00:47:34;4.69;97.86
75170;SHT31;63749;49.186;9.222;2023-12-22T00:50:00;4.69;97.75
75170;SHT31;63749;49.186;9.222;2023-12-22T00:52:26;4.68;97.85
75170;SHT31;63749;49.186;9.222;2023-12-22T00:54:52;4.68;98.12
75170;SHT31;63749;49.186;9.222;2023-12-22T00:57:17;4.78;98.14
75170;SHT31;63749;49.186;9.222;2023-12-22T00:59:42;4.79;98.23
75170;SHT31;63749;49.186;9.222;2023-12-22T01:02:13;4.76;97.96
75170;SHT31;63749;49.186;9.222;2023-12-22T01:04:38;4.74;98.32
75170;SHT31;63749;49.186;9.222;2023-12-22T01:07:03;4.76;98.39
75170;SHT31;63749;49.186;9.222;2023-12-22T01:09:29;4.78;98.62
75170;SHT31;63749;49.186;9.222;2023-12-22T01:11:54;4.76;98.91
75170;SHT31;63749;49.186;9.222;2023-12-22T01:14:19;4.79;98.92
75170;SHT31;63749;49.186;9.222;2023-12-22T01:16:45;4.84;98.91
75170;SHT31;63749;49.186;9.222;2023-12-22T01:19:10;4.85;98.58
75170;SHT31;63749;49.186;9.222;2023-12-22T01:21:35;4.82;98.44
75170;SHT31;63749;49.186;9.222;2023-12-22T01:24:01;4.81;98.51
75170;SHT31;63749;49.186;9.222;2023-12-22T01:26:27;4.85;98.77
75170;SHT31;63749;49.186;9.222;2023-12-22T01:28:53;4.88;98.74
75170;SHT31;63749;49.186;9.222;2023-12-22T01:31:18;4.92;98.69
75170;SHT31;63749;49.186;9.222;2023-12-22T01:33:44;4.91;98.94
75170;SHT31;63749;49.186;9.222;2023-12-22T01:36:10;4.92;99.12
75170;SHT31;63749;49.186;9.222;2023-12-22T01:38:35;4.91;99.13
75170;SHT31;63749;49.186;9.222;2023-12-22T01:41:00;4.95;98.98
75170;SHT31;63749;49.186;9.222;2023-12-22T01:43:25;5.05;98.57
75170;SHT31;63749;49.186;9.222;2023-12-22T01:45:55;5.18;98.34
75170;SHT31;63749;49.186;9.222;2023-12-22T01:48:22;5.11;98.06
75170;SHT31;63749;49.186;9.222;2023-12-22T01:50:49;5.11;98.17
75170;SHT31;63749;49.186;9.222;2023-12-22T01:53:16;5.16;97.61
75170;SHT31;63749;49.186;9.222;2023-12-22T01:55:41;5.30;96.88
75170;SHT31;63749;49.186;9.222;2023-12-22T01:58:07;5.36;97.41
75170;SHT31;63749;49.186;9.222;2023-12-22T02:00:33;5.40;96.94
75170;SHT31;63749;49.186;9.222;2023-12-22T02:02:59;5.33;97.17
75170;SHT31;63749;49.186;9.222;2023-12-22T02:05:24;5.29;97.28
75170;SHT31;63749;49.186;9.222;2023-12-22T02:07:50;5.23;97.29
75170;SHT31;63749;49.186;9.222;2023-12-22T02:10:15;5.22;97.27
75170;SHT31;63749;49.186;9.222;2023-12-22T02:12:42;5.16;97.42
75170;SHT31;63749;49.186;9.222;2023-12-22T02:15:08;5.08;97.54
75170;SHT31;63749;49.186;9.222;2023-12-22T02:20:30;5.08;97.34
75170;SHT31;63749;49.186;9.222;2023-12-22T02:22:55;4.98;97.60
75170;SHT31;63749;49.186;9.222;2023-12-22T02:25:21;4.92;97.51
75170;SHT31;63749;49.186;9.222;2023-12-22T02:27:50;4.88;98.14
75170;SHT31;63749;49.186;9.222;2023-12-22T02:30:25;4.95;98.03
75170;SHT31;63749;49.186;9.222;2023-12-22T02:32:55;5.12;98.22
75170;SHT31;63749;49.186;9.222;2023-12-22T02:35:23;5.13;98.02
75170;SHT31;63749;49.186;9.222;2023-12-22T02:37:49;5.20;98.16
75170;SHT31;63749;49.186;9.222;2023-12-22T02:40:16;5.27;97.88
75170;SHT31;63749;49.186;9.222;2023-12-22T02:42:44;5.46;97.01
75170;SHT31;63749;49.186;9.222;2023-12-22T02:45:17;5.48;96.99
75170;SHT31;63749;49.186;9.222;2023-12-22T02:47:43;5.56;96.53
75170;SHT31;63749;49.186;9.222;2023-12-22T02:50:09;5.56;96.87
75170;SHT31;63749;49.186;9.222;2023-12-22T02:52:35;5.63;96.62
75170;SHT31;63749;49.186;9.222;2023-12-22T02:55:01;5.70;96.13
75170;SHT31;63749;49.186;9.222;2023-12-22T02:57:26;5.77;96.11
75170;SHT31;63749;49.186;9.222;2023-12-22T02:59:52;6.09;94.76
75170;SHT31;63749;49.186;9.222;2023-12-22T03:02:17;6.43;93.40
75170;SHT31;63749;49.186;9.222;2023-12-22T03:04:43;6.54;93.06
75170;SHT31;63749;49.186;9.222;2023-12-22T03:07:08;6.57;93.06
75170;SHT31;63749;49.186;9.222;2023-12-22T03:09:34;6.58;93.39
75170;SHT31;63749;49.186;9.222;2023-12-22T03:11:59;6.62;93.21
75170;SHT31;63749;49.186;9.222;2023-12-22T03:14:32;6.67;93.35
75170;SHT31;63749;49.186;9.222;2023-12-22T03:17:05;6.66;93.72
75170;SHT31;63749;49.186;9.222;2023-12-22T03:19:31;6.66;93.73
75170;SHT31;63749;49.186;9.222;2023-12-22T03:21:57;6.56;94.52
75170;SHT31;63749;49.186;9.222;2023-12-22T03:24:23;6.50;94.54
75170;SHT31;63749;49.186;9.222;2023-12-22T03:26:49;6.49;94.13
75170;SHT31;63749;49.186;9.222;2023-12-22T03:29:14;6.50;94.58
75170;SHT31;63749;49.186;9.222;2023-12-22T03:31:40;6.53;93.68
75170;SHT31;63749;49.186;9.222;2023-12-22T03:34:06;6.63;93.26
75170;SHT31;63749;49.186;9.222;2023-12-22T03:36:31;6.69;94.02
75170;SHT31;63749;49.186;9.222;2023-12-22T03:38:56;6.74;93.30
75170;SHT31;63749;49.186;9.222;2023-12-22T03:41:22;6.67;94.43
75170;SHT31;63749;49.186;9.222;2023-12-22T03:43:47;6.70;93.92
75170;SHT31;63749;49.186;9.222;2023-12-22T03:46:12;6.72;93.91
75170;SHT31;63749;49.186;9.222;2023-12-22T03:48:38;6.66;94.21
75170;SHT31;63749;49.186;9.222;2023-12-22T03:51:03;6.43;94.19
75170;SHT31;63749;49.186;9.222;2023-12-22T03:53:28;6.19;94.73
75170;SHT31;63749;49.186;9.222;2023-12-22T03:55:54;6.11;94.81
75170;SHT31;63749;49.186;9.222;2023-12-22T03:58:20;6.11;94.61
75170;SHT31;63749;49.186;9.222;2023-12-22T04:00:45;6.30;92.83
75170;SHT31;63749;49.186;9.222;2023-12-22T04:03:10;6.35;93.52
75170;SHT31;63749;49.186;9.222;2023-12-22T04:05:36;6.37;94.08
75170;SHT31;63749;49.186;9.222;2023-12-22T04:08:01;6.40;93.99
75170;SHT31;63749;49.186;9.222;2023-12-22T04:10:26;6.53;93.36
75170;SHT31;63749;49.186;9.222;2023-12-22T04:12:52;6.58;93.56
75170;SHT31;63749;49.186;9.222;2023-12-22T04:15:17;6.69;92.86
75170;SHT31;63749;49.186;9.222;2023-12-22T04:17:43;6.73;92.18
75170;SHT31;63749;49.186;9.222;2023-12-22T04:20:08;6.72;92.45
75170;SHT31;63749;49.186;9.222;2023-12-22T04:22:33;6.83;91.88
75170;SHT31;63749;49.186;9.222;2023-12-22T04:24:59;6.98;90.59
75170;SHT31;63749;49.186;9.222;2023-12-22T04:27:24;7.07;90.60
75170;SHT31;63749;49.186;9.222;2023-12-22T04:29:50;7.09;90.01
75170;SHT31;63749;49.186;9.222;2023-12-22T04:32:15;7.12;90.37
75170;SHT31;63749;49.186;9.222;2023-12-22T04:34:40;7.26;89.73
75170;SHT31;63749;49.186;9.222;2023-12-22T04:37:06;7.32;88.71
75170;SHT31;63749;49.186;9.222;2023-12-22T04:39:31;7.46;88.24
75170;SHT31;63749;49.186;9.222;2023-12-22T04:41:56;7.43;89.19
75170;SHT31;63749;49.186;9.222;2023-12-22T04:44:22;7.43;89.20
75170;SHT31;63749;49.186;9.222;2023-12-22T04:46:47;7.43;89.06
75170;SHT31;63749;49.186;9.222;2023-12-22T04:49:12;7.38;89.55
75170;SHT31;63749;49.186;9.222;2023-12-22T04:51:38;7.45;88.73
75170;SHT31;63749;49.186;9.222;2023-12-22T04:54:03;7.48;88.81
75170;SHT31;63749;49.186;9.222;2023-12-22T04:56:28;7.45;88.62
75170;SHT31;63749;49.186;9.222;2023-12-22T04:58:54;7.53;88.25
75170;SHT31;63749;49.186;9.222;2023-12-22T05:01:19;7.69;87.44
75170;SHT31;63749;49.186;9.222;2023-12-22T05:03:46;7.63;87.72
75170;SHT31;63749;49.186;9.222;2023-12-22T05:06:11;7.67;87.57
75170;SHT31;63749;49.186;9.222;2023-12-22T05:08:36;7.58;88.51
75170;SHT31;63749;49.186;9.222;2023-12-22T05:11:02;7.34;90.79
75170;SHT31;63749;49.186;9.222;2023-12-22T05:13:28;7.21;91.17
75170;SHT31;63749;49.186;9.222;2023-12-22T05:15:53;7.00;92.66
75170;SHT31;63749;49.186;9.222;2023-12-22T05:18:20;6.77;93.93
75170;SHT31;63749;49.186;9.222;2023-12-22T05:20:45;6.57;94.19
75170;SHT31;63749;49.186;9.222;2023-12-22T05:23:11;6.46;94.88
75170;SHT31;63749;49.186;9.222;2023-12-22T05:25:36;6.49;93.78
75170;SHT31;63749;49.186;9.222;2023-12-22T05:28:09;6.47;94.24
75170;SHT31;63749;49.186;9.222;2023-12-22T05:30:42;6.62;92.81
75170;SHT31;63749;49.186;9.222;2023-12-22T05:33:10;6.69;91.94
75170;SHT31;63749;49.186;9.222;2023-12-22T05:35:36;6.67;92.60
75170;SHT31;63749;49.186;9.222;2023-12-22T05:38:01;6.57;94.01
75170;SHT31;63749;49.186;9.222;2023-12-22T05:40:27;6.49;94.60
75170;SHT31;63749;49.186;9.222;2023-12-22T05:42:52;6.40;95.41
75170;SHT31;63749;49.186;9.222;2023-12-22T05:45:18;6.43;94.68
75170;SHT31;63749;49.186;9.222;2023-12-22T05:47:43;6.32;95.20
75170;SHT31;63749;49.186;9.222;2023-12-22T05:50:09;6.25;95.48
75170;SHT31;63749;49.186;9.222;2023-12-22T05:52:36;6.21;96.08
75170;SHT31;63749;49.186;9.222;2023-12-22T05:55:01;6.15;96.17
75170;SHT31;63749;49.186;9.222;2023-12-22T05:57:27;6.09;96.57
75170;SHT31;63749;49.186;9.222;2023-12-22T05:59:53;6.12;96.86
75170;SHT31;63749;49.186;9.222;2023-12-22T06:02:18;6.15;96.73
75170;SHT31;63749;49.186;9.222;2023-12-22T06:04:43;6.19;96.73
75170;SHT31;63749;49.186;9.222;2023-12-22T06:07:10;6.16;96.74
75170;SHT31;63749;49.186;9.222;2023-12-22T06:09:36;6.29;96.12
75170;SHT31;63749;49.186;9.222;2023-12-22T06:12:01;6.40;95.98
75170;SHT31;63749;49.186;9.222;2023-12-22T06:14:26;6.49;95.33
75170;SHT31;63749;49.186;9.222;2023-12-22T06:16:52;6.73;93.15
75170;SHT31;63749;49.186;9.222;2023-12-22T06:19:18;6.83;93.51
75170;SHT31;63749;49.186;9.222;2023-12-22T06:21:44;6.94;92.31
75170;SHT31;63749;49.186;9.222;2023-12-22T06:24:09;7.09;91.40
75170;SHT31;63749;49.186;9.222;2023-12-22T06:26:35;7.05;92.12
75170;SHT31;63749;49.186;9.222;2023-12-22T06:29:00;7.12;91.37
75170;SHT31;63749;49.186;9.222;2023-12-22T06:31:25;7.11;91.70
75170;SHT31;63749;49.186;9.222;2023-12-22T06:33:51;7.15;91.40
75170;SHT31;63749;49.186;9.222;2023-12-22T06:36:24;7.22;90.76
75170;SHT31;63749;49.186;9.222;2023-12-22T06:38:51;7.24;90.60
75170;SHT31;63749;49.186;9.222;2023-12-22T06:43:45;7.25;90.27
75170;SHT31;63749;49.186;9.222;2023-12-22T06:46:17;7.31;89.10
75170;SHT31;63749;49.186;9.222;2023-12-22T06:48:43;7.26;90.32
75170;SHT31;63749;49.186;9.222;2023-12-22T06:51:26;7.24;91.06
75170;SHT31;63749;49.186;9.222;2023-12-22T06:53:53;7.31;90.41
75170;SHT31;63749;49.186;9.222;2023-12-22T06:56:23;7.38;91.58
75170;SHT31;63749;49.186;9.222;2023-12-22T06:58:50;7.59;89.79
75170;SHT31;63749;49.186;9.222;2023-12-22T07:01:25;7.70;88.67
75170;SHT31;63749;49.186;9.222;2023-12-22T07:03:51;7.86;89.09
75170;SHT31;63749;49.186;9.222;2023-12-22T07:06:17;7.97;88.51
75170;SHT31;63749;49.186;9.222;2023-12-22T07:08:43;8.11;87.34
75170;SHT31;63749;49.186;9.222;2023-12-22T07:11:11;8.25;86.17
75170;SHT31;63749;49.186;9.222;2023-12-22T07:13:37;8.37;85.41
75170;SHT31;63749;49.186;9.222;2023-12-22T07:16:04;8.35;85.54
75170;SHT31;63749;49.186;9.222;2023-12-22T07:18:30;8.37;84.95
75170;SHT31;63749;49.186;9.222;2023-12-22T07:20:56;8.41;85.13
75170;SHT31;63749;49.186;9.222;2023-12-22T07:23:22;8.40;83.76
75170;SHT31;63749;49.186;9.222;2023-12-22T07:25:48;8.41;82.81
75170;SHT31;63749;49.186;9.222;2023-12-22T07:28:13;8.44;83.88
75170;SHT31;63749;49.186;9.222;2023-12-22T07:30:38;8.37;84.21
75170;SHT31;63749;49.186;9.222;2023-12-22T07:33:04;8.46;82.76
75170;SHT31;63749;49.186;9.222;2023-12-22T07:35:29;8.46;82.31
75170;SHT31;63749;49.186;9.222;2023-12-22T07:37:54;8.38;82.30
75170;SHT31;63749;49.186;9.222;2023-12-22T07:40:20;8.28;82.43
75170;SHT31;63749;49.186;9.222;2023-12-22T07:42:45;8.25;82.86
75170;SHT31;63749;49.186;9.222;2023-12-22T07:45:11;8.24;82.74
75170;SHT31;63749;49.186;9.222;2023-12-22T07:47:36;8.23;82.85
75170;SHT31;63749;49.186;9.222;2023-12-22T07:50:03;8.21;83.61
75170;SHT31;63749;49.186;9.222;2023-12-22T07:52:28;8.15;83.97
75170;SHT31;63749;49.186;9.222;2023-12-22T07:54:53;8.24;83.94
75170;SHT31;63749;49.186;9.222;2023-12-22T07:57:20;8.15;84.54
75170;SHT31;63749;49.186;9.222;2023-12-22T07:59:45;8.11;84.99
75170;SHT31;63749;49.186;9.222;2023-12-22T08:02:10;8.18;84.91
75170;SHT31;63749;49.186;9.222;2023-12-22T08:04:37;8.15;85.46
75170;SHT31;63749;49.186;9.222;2023-12-22T08:07:02;8.13;85.58
75170;SHT31;63749;49.186;9.222;2023-12-22T08:09:27;8.15;85.41
75170;SHT31;63749;49.186;9.222;2023-12-22T08:11:53;8.15;85.33
75170;SHT31;63749;49.186;9.222;2023-12-22T08:14:19;8.14;85.72
75170;SHT31;63749;49.186;9.222;2023-12-22T08:16:44;8.17;86.01
75170;SHT31;63749;49.186;9.222;2023-12-22T08:19:10;8.13;85.67
75170;SHT31;63749;49.186;9.222;2023-12-22T08:21:35;8.14;86.41
75170;SHT31;63749;49.186;9.222;2023-12-22T08:24:00;8.10;86.72
75170;SHT31;63749;49.186;9.222;2023-12-22T08:26:26;8.01;87.64
75170;SHT31;63749;49.186;9.222;2023-12-22T08:28:51;7.84;88.75
75170;SHT31;63749;49.186;9.222;2023-12-22T08:31:16;7.70;89.79
75170;SHT31;63749;49.186;9.222;2023-12-22T08:33:42;7.61;91.26
75170;SHT31;63749;49.186;9.222;2023-12-22T08:36:09;7.52;92.02
75170;SHT31;63749;49.186;9.222;2023-12-22T08:38:34;7.45;92.41
75170;SHT31;63749;49.186;9.222;2023-12-22T08:40:59;7.45;93.04
75170;SHT31;63749;49.186;9.222;2023-12-22T08:43:25;7.41;93.17
75170;SHT31;63749;49.186;9.222;2023-12-22T08:45:50;7.41;93.85
75170;SHT31;63749;49.186;9.222;2023-12-22T08:48:15;7.42;93.56
75170;SHT31;63749;49.186;9.222;2023-12-22T08:50:41;7.45;93.96
75170;SHT31;63749;49.186;9.222;2023-12-22T08:53:06;7.41;94.23
75170;SHT31;63749;49.186;9.222;2023-12-22T08:55:31;7.38;94.49
75170;SHT31;63749;49.186;9.222;2023-12-22T08:57:57;7.34;95.12
75170;SHT31;63749;49.186;9.222;2023-12-22T09:00:22;7.25;95.73
75170;SHT31;63749;49.186;9.222;2023-12-22T09:02:47;7.24;95.77
75170;SHT31;63749;49.186;9.222;2023-12-22T09:05:13;7.28;96.01
75170;SHT31;63749;49.186;9.222;2023-12-22T09:07:38;7.31;95.94
75170;SHT31;63749;49.186;9.222;2023-12-22T09:10:04;7.31;96.16
75170;SHT31;63749;49.186;9.222;2023-12-22T09:12:30;7.35;96.07
75170;SHT31;63749;49.186;9.222;2023-12-22T09:14:55;7.42;96.19
75170;SHT31;63749;49.186;9.222;2023-12-22T09:17:20;7.45;95.70
75170;SHT31;63749;49.186;9.222;2023-12-22T09:19:46;7.49;95.07
75170;SHT31;63749;49.186;9.222;2023-12-22T09:22:11;7.51;95.01
75170;SHT31;63749;49.186;9.222;2023-12-22T09:24:37;7.53;94.56
75170;SHT31;63749;49.186;9.222;2023-12-22T09:27:03;7.63;94.18
75170;SHT31;63749;49.186;9.222;2023-12-22T09:29:30;7.65;94.10
75170;SHT31;63749;49.186;9.222;2023-12-22T09:31:56;7.62;94.41
75170;SHT31;63749;49.186;9.222;2023-12-22T09:34:22;7.61;94.26
75170;SHT31;63749;49.186;9.222;2023-12-22T09:36:48;7.66;93.70
75170;SHT31;63749;49.186;9.222;2023-12-22T09:39:13;7.65;93.85
75170;SHT31;63749;49.186;9.222;2023-12-22T09:41:44;7.66;93.46
75170;SHT31;63749;49.186;9.222;2023-12-22T09:44:12;7.67;94.20
75170;SHT31;63749;49.186;9.222;2023-12-22T09:46:38;7.70;93.49
75170;SHT31;63749;49.186;9.222;2023-12-22T09:49:05;7.73;92.88
75170;SHT31;63749;49.186;9.222;2023-12-22T09:51:31;7.74;92.73
75170;SHT31;63749;49.186;9.222;2023-12-22T09:53:58;7.79;92.63
75170;SHT31;63749;49.186;9.222;2023-12-22T09:56:24;7.73;92.92
75170;SHT31;63749;49.186;9.222;2023-12-22T09:58:51;7.67;93.44
75170;SHT31;63749;49.186;9.222;2023-12-22T10:01:19;7.66;93.27
75170;SHT31;63749;49.186;9.222;2023-12-22T10:03:47;7.69;93.34
75170;SHT31;63749;49.186;9.222;2023-12-22T10:06:12;7.69;92.77
75170;SHT31;63749;49.186;9.222;2023-12-22T10:08:38;7.70;92.57
75170;SHT31;63749;49.186;9.222;2023-12-22T10:11:04;7.82;91.68
75170;SHT31;63749;49.186;9.222;2023-12-22T10:13:33;7.86;91.72
75170;SHT31;63749;49.186;9.222;2023-12-22T10:16:01;7.91;91.57
75170;SHT31;63749;49.186;9.222;2023-12-22T10:18:28;7.95;91.13
75170;SHT31;63749;49.186;9.222;2023-12-22T10:20:54;8.04;90.55
75170;SHT31;63749;49.186;9.222;2023-12-22T10:23:19;8.15;89.99
75170;SHT31;63749;49.186;9.222;2023-12-22T10:25:45;8.17;89.87
75170;SHT31;63749;49.186;9.222;2023-12-22T10:28:12;8.23;89.24
75170;SHT31;63749;49.186;9.222;2023-12-22T10:30:40;8.27;89.14
75170;SHT31;63749;49.186;9.222;2023-12-22T10:33:06;8.35;89.07
75170;SHT31;63749;49.186;9.222;2023-12-22T10:35:31;8.38;87.79
75170;SHT31;63749;49.186;9.222;2023-12-22T10:37:58;8.41;87.74
75170;SHT31;63749;49.186;9.222;2023-12-22T10:40:24;8.41;87.33
75170;SHT31;63749;49.186;9.222;2023-12-22T10:42:50;8.41;88.16
75170;SHT31;63749;49.186;9.222;2023-12-22T10:45:18;8.34;88.25
75170;SHT31;63749;49.186;9.222;2023-12-22T10:47:43;8.30;88.52
75170;SHT31;63749;49.186;9.222;2023-12-22T10:50:11;8.25;88.81
75170;SHT31;63749;49.186;9.222;2023-12-22T10:52:37;8.27;87.78
75170;SHT31;63749;49.186;9.222;2023-12-22T10:55:02;8.28;87.84
75170;SHT31;63749;49.186;9.222;2023-12-22T10:57:28;8.23;88.60
75170;SHT31;63749;49.186;9.222;2023-12-22T10:59:56;8.15;89.53
75170;SHT31;63749;49.186;9.222;2023-12-22T11:02:22;8.11;89.73
75170;SHT31;63749;49.186;9.222;2023-12-22T11:05:07;8.07;90.10
75170;SHT31;63749;49.186;9.222;2023-12-22T11:07:36;8.04;90.51
75170;SHT31;63749;49.186;9.222;2023-12-22T11:10:04;8.07;90.11
75170;SHT31;63749;49.186;9.222;2023-12-22T11:12:33;8.05;90.39
75170;SHT31;63749;49.186;9.222;2023-12-22T11:15:01;8.05;91.14
75170;SHT31;63749;49.186;9.222;2023-12-22T11:17:28;8.08;91.06
75170;SHT31;63749;49.186;9.222;2023-12-22T11:19:55;8.08;91.73
75170;SHT31;63749;49.186;9.222;2023-12-22T11:22:21;8.13;91.68
75170;SHT31;63749;49.186;9.222;2023-12-22T11:24:47;8.14;91.62
75170;SHT31;63749;49.186;9.222;2023-12-22T11:27:19;8.11;92.38
75170;SHT31;63749;49.186;9.222;2023-12-22T11:29:50;8.18;92.36
75170;SHT31;63749;49.186;9.222;2023-12-22T11:32:17;8.17;92.40
75170;SHT31;63749;49.186;9.222;2023-12-22T11:34:44;8.11;92.57
75170;SHT31;63749;49.186;9.222;2023-12-22T11:37:14;8.15;93.26
75170;SHT31;63749;49.186;9.222;2023-12-22T11:39:43;8.13;93.42
75170;SHT31;63749;49.186;9.222;2023-12-22T11:42:19;8.10;93.38
75170;SHT31;63749;49.186;9.222;2023-12-22T11:44:45;8.07;94.27
75170;SHT31;63749;49.186;9.222;2023-12-22T11:47:10;8.04;94.59
75170;SHT31;63749;49.186;9.222;2023-12-22T11:49:38;7.98;95.12
75170;SHT31;63749;49.186;9.222;2023-12-22T11:52:27;7.89;95.83
75170;SHT31;63749;49.186;9.222;2023-12-22T11:54:56;7.84;96.56
75170;SHT31;63749;49.186;9.222;2023-12-22T11:57:39;7.80;96.75
75170;SHT31;63749;49.186;9.222;2023-12-22T12:02:54;7.86;96.82
75170;SHT31;63749;49.186;9.222;2023-12-22T12:05:19;7.87;96.38
75170;SHT31;63749;49.186;9.222;2023-12-22T12:07:46;7.89;96.61
75170;SHT31;63749;49.186;9.222;2023-12-22T12:15:35;7.93;96.36
75170;SHT31;63749;49.186;9.222;2023-12-22T12:18:01;7.91;96.26
75170;SHT31;63749;49.186;9.222;2023-12-22T12:20:27;7.97;96.28
75170;SHT31;63749;49.186;9.222;2023-12-22T12:22:54;8.00;95.89
75170;SHT31;63749;49.186;9.222;2023-12-22T12:25:22;8.03;96.03
75170;SHT31;63749;49.186;9.222;2023-12-22T12:27:51;8.04;95.96
75170;SHT31;63749;49.186;9.222;2023-12-22T12:30:26;8.11;95.58
75170;SHT31;63749;49.186;9.222;2023-12-22T12:32:51;8.13;95.94
75170;SHT31;63749;49.186;9.222;2023-12-22T12:35:18;8.17;95.68
75170;SHT31;63749;49.186;9.222;2023-12-22T12:37:44;8.18;95.68
75170;SHT31;63749;49.186;9.222;2023-12-22T12:40:11;8.24;95.56
75170;SHT31;63749;49.186;9.222;2023-12-22T12:42:37;8.27;95.34
75170;SHT31;63749;49.186;9.222;2023-12-22T12:45:07;8.31;95.16
75170;SHT31;63749;49.186;9.222;2023-12-22T12:47:34;8.34;94.62
75170;SHT31;63749;49.186;9.222;2023-12-22T12:50:03;8.37;94.60
75170;SHT31;63749;49.186;9.222;2023-12-22T12:52:30;8.37;95.06
75170;SHT31;63749;49.186;9.222;2023-12-22T12:54:55;8.40;94.92
75170;SHT31;63749;49.186;9.222;2023-12-22T12:57:23;8.46;94.72
75170;SHT31;63749;49.186;9.222;2023-12-22T12:59:50;8.49;95.06
75170;SHT31;63749;49.186;9.222;2023-12-22T13:02:16;8.51;95.04
75170;SHT31;63749;49.186;9.222;2023-12-22T13:04:42;8.48;95.52
75170;SHT31;63749;49.186;9.222;2023-12-22T13:07:08;8.49;95.80
75170;SHT31;63749;49.186;9.222;2023-12-22T13:09:35;8.46;95.88
75170;SHT31;63749;49.186;9.222;2023-12-22T13:12:01;8.51;95.99
75170;SHT31;63749;49.186;9.222;2023-12-22T13:14:26;8.59;95.83
75170;SHT31;63749;49.186;9.222;2023-12-22T13:16:53;8.59;96.06
75170;SHT31;63749;49.186;9.222;2023-12-22T13:19:22;8.63;96.27
75170;SHT31;63749;49.186;9.222;2023-12-22T13:21:48;8.65;96.25
75170;SHT31;63749;49.186;9.222;2023-12-22T13:24:15;8.66;96.35
75170;SHT31;63749;49.186;9.222;2023-12-22T13:26:44;8.69;96.34
75170;SHT31;63749;49.186;9.222;2023-12-22T13:29:11;8.66;96.65
75170;SHT31;63749;49.186;9.222;2023-12-22T13:31:40;8.69;96.57
75170;SHT31;63749;49.186;9.222;2023-12-22T13:34:13;8.71;96.69
75170;SHT31;63749;49.186;9.222;2023-12-22T13:36:40;8.66;96.98
75170;SHT31;63749;49.186;9.222;2023-12-22T13:39:08;8.75;96.76
75170;SHT31;63749;49.186;9.222;2023-12-22T13:41:40;8.73;96.60
75170;SHT31;63749;49.186;9.222;2023-12-22T13:44:07;8.79;96.57
75170;SHT31;63749;49.186;9.222;2023-12-22T13:46:33;8.80;96.41
75170;SHT31;63749;49.186;9.222;2023-12-22T13:49:01;8.84;96.56
75170;SHT31;63749;49.186;9.222;2023-12-22T13:51:37;8.89;96.37
75170;SHT31;63749;49.186;9.222;2023-12-22T13:54:03;8.93;96.24
75170;SHT31;63749;49.186;9.222;2023-12-22T13:56:33;8.96;96.47
75170;SHT31;63749;49.186;9.222;2023-12-22T13:59:00;9.06;96.03
75170;SHT31;63749;49.186;9.222;2023-12-22T14:01:25;9.09;95.84
75170;SHT31;63749;49.186;9.222;2023-12-22T14:03:51;9.17;95.56
75170;SHT31;63749;49.186;9.222;2023-12-22T14:06:16;9.17;95.59
75170;SHT31;63749;49.186;9.222;2023-12-22T14:08:41;9.22;95.09
75170;SHT31;63749;49.186;9.222;2023-12-22T14:11:07;9.23;95.16
75170;SHT31;63749;49.186;9.222;2023-12-22T14:13:33;9.20;95.37
75170;SHT31;63749;49.186;9.222;2023-12-22T14:16:06;9.23;95.25
75170;SHT31;63749;49.186;9.222;2023-12-22T14:18:31;9.24;95.34
75170;SHT31;63749;49.186;9.222;2023-12-22T14:20:57;9.30;95.22
75170;SHT31;63749;49.186;9.222;2023-12-22T14:23:24;9.33;95.05
75170;SHT31;63749;49.186;9.222;2023-12-22T14:25:49;9.31;95.08
75170;SHT31;63749;49.186;9.222;2023-12-22T14:28:14;9.31;95.07
75170;SHT31;63749;49.186;9.222;2023-12-22T14:30:40;9.38;94.55
75170;SHT31;63749;49.186;9.222;2023-12-22T14:33:05;9.41;94.57
75170;SHT31;63749;49.186;9.222;2023-12-22T14:35:30;9.44;94.27
75170;SHT31;63749;49.186;9.222;2023-12-22T14:37:57;9.48;94.23
75170;SHT31;63749;49.186;9.222;2023-12-22T14:40:24;9.51;94.15
75170;SHT31;63749;49.186;9.222;2023-12-22T14:42:50;9.54;93.78
75170;SHT31;63749;49.186;9.222;2023-12-22T14:45:16;9.59;93.71
75170;SHT31;63749;49.186;9.222;2023-12-22T14:47:41;9.58;93.92
75170;SHT31;63749;49.186;9.222;2023-12-22T14:50:07;9.58;93.72
75170;SHT31;63749;49.186;9.222;2023-12-22T14:52:32;9.64;93.65
75170;SHT31;63749;49.186;9.222;2023-12-22T14:54:59;9.62;93.62
75170;SHT31;63749;49.186;9.222;2023-12-22T14:57:24;9.62;93.88
75170;SHT31;63749;49.186;9.222;2023-12-22T14:59:50;9.65;93.33
75170;SHT31;63749;49.186;9.222;2023-12-22T15:02:15;9.59;94.11
75170;SHT31;63749;49.186;9.222;2023-12-22T15:04:41;9.48;94.71
75170;SHT31;63749;49.186;9.222;2023-12-22T15:07:06;9.38;94.89
75170;SHT31;63749;49.186;9.222;2023-12-22T15:09:32;9.31;95.94
75170;SHT31;63749;49.186;9.222;2023-12-22T15:11:57;9.28;95.89
75170;SHT31;63749;49.186;9.222;2023-12-22T15:14:23;9.26;95.85
75170;SHT31;63749;49.186;9.222;2023-12-22T15:16:48;9.26;96.06
75170;SHT31;63749;49.186;9.222;2023-12-22T15:19:16;9.27;96.08
75170;SHT31;63749;49.186;9.222;2023-12-22T15:21:42;9.23;96.44
75170;SHT31;63749;49.186;9.222;2023-12-22T15:24:08;9.22;96.23
75170;SHT31;63749;49.186;9.222;2023-12-22T15:26:34;9.22;96.43
75170;SHT31;63749;49.186;9.222;2023-12-22T15:29:00;9.26;96.01
75170;SHT31;63749;49.186;9.222;2023-12-22T15:31:26;9.24;96.09
75170;SHT31;63749;49.186;9.222;2023-12-22T15:33:54;9.24;96.06
75170;SHT31;63749;49.186;9.222;2023-12-22T15:36:19;9.17;96.69
75170;SHT31;63749;49.186;9.222;2023-12-22T15:38:47;9.17;96.84
75170;SHT31;63749;49.186;9.222;2023-12-22T15:41:12;9.12;96.87
75170;SHT31;63749;49.186;9.222;2023-12-22T15:43:38;9.07;96.92
75170;SHT31;63749;49.186;9.222;2023-12-22T15:46:04;9.09;96.72
75170;SHT31;63749;49.186;9.222;2023-12-22T15:48:30;9.10;96.96
75170;SHT31;63749;49.186;9.222;2023-12-22T15:50:55;9.13;96.90
75170;SHT31;63749;49.186;9.222;2023-12-22T15:53:20;9.09;96.77